sensor_id;sensor_type;location;lat;lon;timestamp;pressure;altitude;pressure_sealevel;temperature;humidity
55066;BME280;40964;42.114;24.220;2022-08-27T00:01:14;97265.88;;;20.31;62.23
55066;BME280;40964;42.114;24.220;2022-08-27T00:03:42;97275.00;;;20.30;62.51
55066;BME280;40964;42.114;24.220;2022-08-27T00:06:11;97276.75;;;20.21;62.63
55066;BME280;40964;42.114;24.220;2022-08-27T00:08:39;97279.69;;;20.19;62.39
55066;BME280;40964;42.114;24.220;2022-08-27T00:11:08;97272.78;;;20.18;62.41
55066;BME280;40964;42.114;24.220;2022-08-27T00:13:34;97274.16;;;20.16;63.07
55066;BME280;40964;42.114;24.220;2022-08-27T00:16:01;97276.91;;;20.10;63.49
55066;BME280;40964;42.114;24.220;2022-08-27T00:18:26;97271.56;;;20.10;63.34
55066;BME280;40964;42.114;24.220;2022-08-27T00:20:52;97280.88;;;20.13;63.49
55066;BME280;40964;42.114;24.220;2022-08-27T00:23:20;97276.09;;;20.10;63.04
55066;BME280;40964;42.114;24.220;2022-08-27T00:25:47;97273.94;;;20.12;62.58
55066;BME280;40964;42.114;24.220;2022-08-27T00:28:13;97278.00;;;20.09;62.91
55066;BME280;40964;42.114;24.220;2022-08-27T00:30:40;97276.34;;;20.13;64.48
55066;BME280;40964;42.114;24.220;2022-08-27T00:33:08;97272.59;;;20.15;63.81
55066;BME280;40964;42.114;24.220;2022-08-27T00:35:36;97279.38;;;20.07;64.05
55066;BME280;40964;42.114;24.220;2022-08-27T00:38:02;97289.41;;;19.96;64.60
55066;BME280;40964;42.114;24.220;2022-08-27T00:40:27;97284.91;;;19.92;63.80
55066;BME280;40964;42.114;24.220;2022-08-27T00:42:53;97288.47;;;19.87;64.57
55066;BME280;40964;42.114;24.220;2022-08-27T00:45:21;97286.75;;;19.77;65.13
55066;BME280;40964;42.114;24.220;2022-08-27T00:47:50;97285.66;;;19.78;65.08
55066;BME280;40964;42.114;24.220;2022-08-27T00:50:32;97285.13;;;19.76;64.53
55066;BME280;40964;42.114;24.220;2022-08-27T00:53:03;97283.03;;;19.73;65.23
55066;BME280;40964;42.114;24.220;2022-08-27T00:55:34;97285.41;;;19.75;64.43
55066;BME280;40964;42.114;24.220;2022-08-27T00:58:15;97285.06;;;19.81;64.35
55066;BME280;40964;42.114;24.220;2022-08-27T01:00:44;97286.34;;;19.84;64.90
55066;BME280;40964;42.114;24.220;2022-08-27T01:03:10;97288.53;;;19.82;63.73
55066;BME280;40964;42.114;24.220;2022-08-27T01:05:36;97285.81;;;19.87;63.69
55066;BME280;40964;42.114;24.220;2022-08-27T01:08:12;97290.56;;;19.90;63.25
55066;BME280;40964;42.114;24.220;2022-08-27T01:10:40;97284.47;;;19.84;63.31
55066;BME280;40964;42.114;24.220;2022-08-27T01:13:07;97280.22;;;19.83;62.59
55066;BME280;40964;42.114;24.220;2022-08-27T01:15:38;97273.41;;;19.77;63.87
55066;BME280;40964;42.114;24.220;2022-08-27T01:18:06;97276.31;;;19.76;62.67
55066;BME280;40964;42.114;24.220;2022-08-27T01:21:08;97272.94;;;19.70;62.78
55066;BME280;40964;42.114;24.220;2022-08-27T01:23:46;97276.25;;;19.62;63.69
55066;BME280;40964;42.114;24.220;2022-08-27T01:26:14;97285.56;;;19.65;62.97
55066;BME280;40964;42.114;24.220;2022-08-27T01:28:42;97279.78;;;19.58;64.13
55066;BME280;40964;42.114;24.220;2022-08-27T01:31:09;97281.59;;;19.62;63.81
55066;BME280;40964;42.114;24.220;2022-08-27T01:33:37;97268.84;;;19.59;63.62
55066;BME280;40964;42.114;24.220;2022-08-27T01:36:04;97277.78;;;19.68;64.02
55066;BME280;40964;42.114;24.220;2022-08-27T01:38:30;97275.63;;;19.70;63.99
55066;BME280;40964;42.114;24.220;2022-08-27T01:40:57;97278.78;;;19.72;64.50
55066;BME280;40964;42.114;24.220;2022-08-27T01:43:23;97287.88;;;19.71;64.74
55066;BME280;40964;42.114;24.220;2022-08-27T01:45:50;97277.06;;;19.63;64.99
55066;BME280;40964;42.114;24.220;2022-08-27T01:48:20;97280.06;;;19.56;64.23
55066;BME280;40964;42.114;24.220;2022-08-27T01:50:49;97277.72;;;19.49;64.56
55066;BME280;40964;42.114;24.220;2022-08-27T01:53:18;97273.75;;;19.47;64.61
55066;BME280;40964;42.114;24.220;2022-08-27T01:55:45;97274.34;;;19.44;63.98
55066;BME280;40964;42.114;24.220;2022-08-27T01:58:13;97278.38;;;19.41;63.82
55066;BME280;40964;42.114;24.220;2022-08-27T02:00:44;97274.09;;;19.40;64.52
55066;BME280;40964;42.114;24.220;2022-08-27T02:03:11;97275.19;;;19.39;64.73
55066;BME280;40964;42.114;24.220;2022-08-27T02:05:37;97274.03;;;19.45;65.18
55066;BME280;40964;42.114;24.220;2022-08-27T02:08:21;97275.91;;;19.45;64.92
55066;BME280;40964;42.114;24.220;2022-08-27T02:10:48;97264.81;;;19.38;65.06
55066;BME280;40964;42.114;24.220;2022-08-27T02:13:14;97275.91;;;19.45;65.30
55066;BME280;40964;42.114;24.220;2022-08-27T02:15:41;97269.50;;;19.46;65.53
55066;BME280;40964;42.114;24.220;2022-08-27T02:18:08;97269.78;;;19.44;64.78
55066;BME280;40964;42.114;24.220;2022-08-27T02:20:35;97269.22;;;19.47;65.22
55066;BME280;40964;42.114;24.220;2022-08-27T02:23:01;97266.63;;;19.42;65.15
55066;BME280;40964;42.114;24.220;2022-08-27T02:25:30;97272.81;;;19.38;65.63
55066;BME280;40964;42.114;24.220;2022-08-27T02:27:56;97274.47;;;19.34;66.42
55066;BME280;40964;42.114;24.220;2022-08-27T02:30:25;97271.25;;;19.32;67.12
55066;BME280;40964;42.114;24.220;2022-08-27T02:32:51;97269.19;;;19.28;66.84
55066;BME280;40964;42.114;24.220;2022-08-27T02:35:18;97275.72;;;19.17;67.36
55066;BME280;40964;42.114;24.220;2022-08-27T02:37:47;97279.28;;;19.08;67.59
55066;BME280;40964;42.114;24.220;2022-08-27T02:40:15;97275.88;;;19.02;67.56
55066;BME280;40964;42.114;24.220;2022-08-27T02:42:42;97280.47;;;18.96;66.78
55066;BME280;40964;42.114;24.220;2022-08-27T02:45:08;97288.75;;;18.95;67.21
55066;BME280;40964;42.114;24.220;2022-08-27T02:47:35;97281.81;;;18.94;67.60
55066;BME280;40964;42.114;24.220;2022-08-27T02:50:01;97270.94;;;18.90;67.91
55066;BME280;40964;42.114;24.220;2022-08-27T02:52:27;97273.66;;;18.85;67.87
55066;BME280;40964;42.114;24.220;2022-08-27T02:54:57;97272.13;;;18.79;67.96
55066;BME280;40964;42.114;24.220;2022-08-27T02:57:23;97268.38;;;18.80;67.67
55066;BME280;40964;42.114;24.220;2022-08-27T02:59:50;97279.84;;;18.81;67.27
55066;BME280;40964;42.114;24.220;2022-08-27T03:02:16;97272.94;;;18.80;68.10
55066;BME280;40964;42.114;24.220;2022-08-27T03:04:42;97283.50;;;18.85;66.34
55066;BME280;40964;42.114;24.220;2022-08-27T03:07:08;97284.78;;;18.92;66.03
55066;BME280;40964;42.114;24.220;2022-08-27T03:09:34;97285.28;;;18.94;66.38
55066;BME280;40964;42.114;24.220;2022-08-27T03:12:00;97284.19;;;18.95;67.80
55066;BME280;40964;42.114;24.220;2022-08-27T03:14:26;97285.81;;;18.96;68.41
55066;BME280;40964;42.114;24.220;2022-08-27T03:16:52;97284.50;;;18.94;68.59
55066;BME280;40964;42.114;24.220;2022-08-27T03:19:17;97296.00;;;18.89;68.92
55066;BME280;40964;42.114;24.220;2022-08-27T03:21:43;97290.00;;;18.79;68.40
55066;BME280;40964;42.114;24.220;2022-08-27T03:24:09;97292.13;;;18.77;68.91
55066;BME280;40964;42.114;24.220;2022-08-27T03:26:34;97300.66;;;18.79;68.38
55066;BME280;40964;42.114;24.220;2022-08-27T03:29:00;97298.03;;;18.74;68.96
55066;BME280;40964;42.114;24.220;2022-08-27T03:31:26;97294.19;;;18.51;69.63
55066;BME280;40964;42.114;24.220;2022-08-27T03:33:59;97302.16;;;18.51;69.53
55066;BME280;40964;42.114;24.220;2022-08-27T03:36:27;97301.19;;;18.41;70.14
55066;BME280;40964;42.114;24.220;2022-08-27T03:38:56;97298.78;;;18.45;69.65
55066;BME280;40964;42.114;24.220;2022-08-27T03:41:22;97311.56;;;18.43;69.81
55066;BME280;40964;42.114;24.220;2022-08-27T03:43:49;97300.66;;;18.39;69.93
55066;BME280;40964;42.114;24.220;2022-08-27T03:46:17;97296.72;;;18.37;69.84
55066;BME280;40964;42.114;24.220;2022-08-27T03:48:45;97308.63;;;18.44;69.97
55066;BME280;40964;42.114;24.220;2022-08-27T03:51:13;97311.03;;;18.41;69.94
55066;BME280;40964;42.114;24.220;2022-08-27T03:53:41;97306.75;;;18.45;70.32
55066;BME280;40964;42.114;24.220;2022-08-27T03:56:07;97308.84;;;18.48;70.47
55066;BME280;40964;42.114;24.220;2022-08-27T03:58:35;97311.28;;;18.44;71.12
55066;BME280;40964;42.114;24.220;2022-08-27T04:01:01;97306.75;;;18.45;71.62
55066;BME280;40964;42.114;24.220;2022-08-27T04:03:27;97319.78;;;18.47;71.11
55066;BME280;40964;42.114;24.220;2022-08-27T04:05:54;97323.75;;;18.49;70.96
55066;BME280;40964;42.114;24.220;2022-08-27T04:08:20;97319.19;;;18.55;71.47
55066;BME280;40964;42.114;24.220;2022-08-27T04:10:47;97321.53;;;18.61;72.06
55066;BME280;40964;42.114;24.220;2022-08-27T04:13:13;97325.00;;;18.62;72.07
55066;BME280;40964;42.114;24.220;2022-08-27T04:15:47;97327.94;;;18.60;71.70
55066;BME280;40964;42.114;24.220;2022-08-27T04:18:13;97308.53;;;18.55;71.30
55066;BME280;40964;42.114;24.220;2022-08-27T04:20:46;97318.88;;;18.61;71.39
55066;BME280;40964;42.114;24.220;2022-08-27T04:23:12;97326.25;;;18.75;71.37
55066;BME280;40964;42.114;24.220;2022-08-27T04:25:42;97313.69;;;18.80;71.02
55066;BME280;40964;42.114;24.220;2022-08-27T04:28:08;97316.53;;;18.89;70.43
55066;BME280;40964;42.114;24.220;2022-08-27T04:30:38;97318.53;;;19.02;70.58
55066;BME280;40964;42.114;24.220;2022-08-27T04:33:04;97327.19;;;19.13;70.02
55066;BME280;40964;42.114;24.220;2022-08-27T04:35:29;97328.41;;;19.25;70.61
55066;BME280;40964;42.114;24.220;2022-08-27T04:37:55;97326.94;;;19.38;69.70
55066;BME280;40964;42.114;24.220;2022-08-27T04:40:22;97319.84;;;19.52;69.40
55066;BME280;40964;42.114;24.220;2022-08-27T04:43:07;97335.31;;;19.74;68.16
55066;BME280;40964;42.114;24.220;2022-08-27T04:45:33;97337.94;;;19.98;67.70
55066;BME280;40964;42.114;24.220;2022-08-27T04:47:58;97330.66;;;20.23;67.05
55066;BME280;40964;42.114;24.220;2022-08-27T04:50:24;97333.06;;;20.43;67.25
55066;BME280;40964;42.114;24.220;2022-08-27T04:52:50;97327.69;;;20.62;67.06
55066;BME280;40964;42.114;24.220;2022-08-27T04:55:16;97334.78;;;20.85;66.33
55066;BME280;40964;42.114;24.220;2022-08-27T04:57:41;97338.38;;;21.08;64.83
55066;BME280;40964;42.114;24.220;2022-08-27T05:00:07;97339.81;;;21.33;64.39
55066;BME280;40964;42.114;24.220;2022-08-27T05:02:33;97329.09;;;21.47;64.52
55066;BME280;40964;42.114;24.220;2022-08-27T05:04:59;97346.03;;;21.70;65.42
55066;BME280;40964;42.114;24.220;2022-08-27T05:07:24;97334.59;;;21.92;63.72
55066;BME280;40964;42.114;24.220;2022-08-27T05:09:50;97343.03;;;22.13;64.11
55066;BME280;40964;42.114;24.220;2022-08-27T05:12:16;97348.22;;;22.31;60.93
55066;BME280;40964;42.114;24.220;2022-08-27T05:14:41;97332.63;;;22.33;58.01
55066;BME280;40964;42.114;24.220;2022-08-27T05:17:07;97349.31;;;22.53;58.61
55066;BME280;40964;42.114;24.220;2022-08-27T05:19:33;97356.16;;;22.59;54.97
55066;BME280;40964;42.114;24.220;2022-08-27T05:21:58;97351.38;;;22.78;56.35
55066;BME280;40964;42.114;24.220;2022-08-27T05:24:24;97345.19;;;22.91;56.96
55066;BME280;40964;42.114;24.220;2022-08-27T05:26:50;97354.41;;;23.08;56.73
55066;BME280;40964;42.114;24.220;2022-08-27T05:29:15;97349.41;;;23.15;56.64
55066;BME280;40964;42.114;24.220;2022-08-27T05:31:41;97342.50;;;23.22;59.17
55066;BME280;40964;42.114;24.220;2022-08-27T05:34:07;97350.72;;;23.26;58.43
55066;BME280;40964;42.114;24.220;2022-08-27T05:36:34;97353.19;;;23.14;57.79
55066;BME280;40964;42.114;24.220;2022-08-27T05:39:01;97355.34;;;23.34;58.64
55066;BME280;40964;42.114;24.220;2022-08-27T05:41:29;97358.81;;;23.35;61.15
55066;BME280;40964;42.114;24.220;2022-08-27T05:44:01;97348.91;;;23.44;61.10
55066;BME280;40964;42.114;24.220;2022-08-27T05:46:27;97358.28;;;23.55;61.13
55066;BME280;40964;42.114;24.220;2022-08-27T05:48:58;97358.66;;;23.31;60.46
55066;BME280;40964;42.114;24.220;2022-08-27T05:51:33;97359.78;;;23.39;60.90
55066;BME280;40964;42.114;24.220;2022-08-27T05:54:07;97356.13;;;23.66;60.01
55066;BME280;40964;42.114;24.220;2022-08-27T05:56:36;97345.41;;;23.74;59.18
55066;BME280;40964;42.114;24.220;2022-08-27T05:59:03;97363.63;;;24.03;58.09
55066;BME280;40964;42.114;24.220;2022-08-27T06:01:49;97366.19;;;24.34;56.99
55066;BME280;40964;42.114;24.220;2022-08-27T06:04:16;97353.72;;;24.39;58.04
55066;BME280;40964;42.114;24.220;2022-08-27T06:06:43;97365.25;;;24.48;56.81
55066;BME280;40964;42.114;24.220;2022-08-27T06:09:11;97363.47;;;24.69;54.88
55066;BME280;40964;42.114;24.220;2022-08-27T06:11:37;97362.69;;;24.86;54.96
55066;BME280;40964;42.114;24.220;2022-08-27T06:14:04;97362.78;;;24.98;55.41
55066;BME280;40964;42.114;24.220;2022-08-27T06:16:30;97359.03;;;24.99;53.86
55066;BME280;40964;42.114;24.220;2022-08-27T06:18:56;97362.63;;;25.21;54.19
55066;BME280;40964;42.114;24.220;2022-08-27T06:21:22;97363.50;;;25.33;51.77
55066;BME280;40964;42.114;24.220;2022-08-27T06:23:48;97366.97;;;25.42;51.93
55066;BME280;40964;42.114;24.220;2022-08-27T06:26:17;97362.63;;;25.59;52.46
55066;BME280;40964;42.114;24.220;2022-08-27T06:28:43;97358.19;;;25.63;53.24
55066;BME280;40964;42.114;24.220;2022-08-27T06:31:39;97365.88;;;25.82;53.08
55066;BME280;40964;42.114;24.220;2022-08-27T06:34:06;97371.84;;;25.87;51.55
55066;BME280;40964;42.114;24.220;2022-08-27T06:36:34;97372.16;;;25.86;52.90
55066;BME280;40964;42.114;24.220;2022-08-27T06:39:00;97365.47;;;25.92;52.72
55066;BME280;40964;42.114;24.220;2022-08-27T06:41:27;97368.13;;;26.00;51.26
55066;BME280;40964;42.114;24.220;2022-08-27T06:43:54;97373.41;;;26.18;51.22
55066;BME280;40964;42.114;24.220;2022-08-27T06:46:22;97373.00;;;26.28;50.16
55066;BME280;40964;42.114;24.220;2022-08-27T06:48:54;97369.94;;;26.38;50.09
55066;BME280;40964;42.114;24.220;2022-08-27T06:51:24;97368.22;;;26.54;49.08
55066;BME280;40964;42.114;24.220;2022-08-27T06:53:51;97373.47;;;26.72;48.08
55066;BME280;40964;42.114;24.220;2022-08-27T06:56:18;97372.25;;;26.81;47.66
55066;BME280;40964;42.114;24.220;2022-08-27T06:58:44;97377.81;;;26.97;47.74
55066;BME280;40964;42.114;24.220;2022-08-27T07:03:38;97376.72;;;26.98;47.78
55066;BME280;40964;42.114;24.220;2022-08-27T07:06:04;97375.56;;;26.99;47.78
55066;BME280;40964;42.114;24.220;2022-08-27T07:08:30;97359.56;;;27.15;47.41
55066;BME280;40964;42.114;24.220;2022-08-27T07:10:56;97377.78;;;27.18;48.83
55066;BME280;40964;42.114;24.220;2022-08-27T07:13:22;97378.22;;;27.08;48.45
55066;BME280;40964;42.114;24.220;2022-08-27T07:15:47;97370.91;;;27.08;47.17
55066;BME280;40964;42.114;24.220;2022-08-27T07:18:13;97376.31;;;27.21;47.07
55066;BME280;40964;42.114;24.220;2022-08-27T07:20:40;97379.91;;;27.12;48.49
55066;BME280;40964;42.114;24.220;2022-08-27T07:23:05;97380.28;;;27.23;48.08
55066;BME280;40964;42.114;24.220;2022-08-27T07:25:31;97383.28;;;27.22;47.51
55066;BME280;40964;42.114;24.220;2022-08-27T07:27:57;97375.13;;;27.42;47.50
55066;BME280;40964;42.114;24.220;2022-08-27T07:30:25;97374.78;;;27.56;46.33
55066;BME280;40964;42.114;24.220;2022-08-27T07:32:52;97382.00;;;27.77;46.75
55066;BME280;40964;42.114;24.220;2022-08-27T07:35:18;97380.78;;;27.74;46.19
55066;BME280;40964;42.114;24.220;2022-08-27T07:37:43;97388.88;;;27.98;46.94
55066;BME280;40964;42.114;24.220;2022-08-27T07:40:12;97379.06;;;28.06;45.65
55066;BME280;40964;42.114;24.220;2022-08-27T07:42:42;97387.63;;;28.33;46.73
55066;BME280;40964;42.114;24.220;2022-08-27T07:45:27;97374.25;;;28.52;46.39
55066;BME280;40964;42.114;24.220;2022-08-27T07:47:57;97390.06;;;28.78;46.51
55066;BME280;40964;42.114;24.220;2022-08-27T07:50:23;97383.72;;;28.86;43.49
55066;BME280;40964;42.114;24.220;2022-08-27T07:52:49;97393.97;;;29.08;44.85
55066;BME280;40964;42.114;24.220;2022-08-27T07:55:15;97387.63;;;29.17;46.66
55066;BME280;40964;42.114;24.220;2022-08-27T07:57:41;97384.63;;;29.50;45.50
55066;BME280;40964;42.114;24.220;2022-08-27T08:00:09;97388.53;;;29.68;43.21
55066;BME280;40964;42.114;24.220;2022-08-27T08:02:35;97384.13;;;29.95;42.79
55066;BME280;40964;42.114;24.220;2022-08-27T08:05:02;97380.28;;;30.12;44.16
55066;BME280;40964;42.114;24.220;2022-08-27T08:07:28;97390.44;;;30.34;43.43
55066;BME280;40964;42.114;24.220;2022-08-27T08:09:53;97385.94;;;30.42;43.88
55066;BME280;40964;42.114;24.220;2022-08-27T08:12:19;97384.69;;;30.74;44.31
55066;BME280;40964;42.114;24.220;2022-08-27T08:14:44;97384.91;;;30.85;42.19
55066;BME280;40964;42.114;24.220;2022-08-27T08:17:11;97379.75;;;30.80;36.37
55066;BME280;40964;42.114;24.220;2022-08-27T08:19:37;97387.31;;;30.90;38.50
55066;BME280;40964;42.114;24.220;2022-08-27T08:22:04;97387.16;;;31.22;36.45
55066;BME280;40964;42.114;24.220;2022-08-27T08:24:30;97392.22;;;31.23;34.73
55066;BME280;40964;42.114;24.220;2022-08-27T08:26:55;97386.28;;;30.98;33.22
55066;BME280;40964;42.114;24.220;2022-08-27T08:29:21;97387.56;;;31.24;34.83
55066;BME280;40964;42.114;24.220;2022-08-27T08:31:46;97384.66;;;31.36;35.05
55066;BME280;40964;42.114;24.220;2022-08-27T08:34:12;97385.47;;;31.37;33.93
55066;BME280;40964;42.114;24.220;2022-08-27T08:36:37;97388.91;;;31.56;32.65
55066;BME280;40964;42.114;24.220;2022-08-27T08:39:03;97381.50;;;31.80;32.48
55066;BME280;40964;42.114;24.220;2022-08-27T08:41:48;97387.22;;;31.98;33.11
55066;BME280;40964;42.114;24.220;2022-08-27T08:44:33;97384.19;;;32.03;34.34
55066;BME280;40964;42.114;24.220;2022-08-27T08:47:31;97383.81;;;32.31;35.68
55066;BME280;40964;42.114;24.220;2022-08-27T08:50:10;97388.47;;;32.30;34.51
55066;BME280;40964;42.114;24.220;2022-08-27T08:52:41;97390.53;;;32.37;33.83
55066;BME280;40964;42.114;24.220;2022-08-27T08:59:05;97382.00;;;32.42;33.74
55066;BME280;40964;42.114;24.220;2022-08-27T09:01:01;97384.66;;;32.68;33.17
55066;BME280;40964;42.114;24.220;2022-08-27T09:03:28;97391.97;;;32.91;32.83
55066;BME280;40964;42.114;24.220;2022-08-27T09:06:12;97388.47;;;32.94;32.83
55066;BME280;40964;42.114;24.220;2022-08-27T09:08:40;97389.94;;;33.21;31.17
55066;BME280;40964;42.114;24.220;2022-08-27T09:13:55;97385.44;;;32.69;33.42
55066;BME280;40964;42.114;24.220;2022-08-27T09:16:22;97381.25;;;32.75;33.66
55066;BME280;40964;42.114;24.220;2022-08-27T09:18:48;97384.84;;;32.83;32.13
55066;BME280;40964;42.114;24.220;2022-08-27T09:21:28;97378.47;;;33.05;31.60
55066;BME280;40964;42.114;24.220;2022-08-27T09:26:50;97386.22;;;33.37;32.37
55066;BME280;40964;42.114;24.220;2022-08-27T09:29:16;97378.56;;;33.16;31.69
55066;BME280;40964;42.114;24.220;2022-08-27T09:34:11;97381.38;;;33.64;29.64
55066;BME280;40964;42.114;24.220;2022-08-27T09:37:03;97379.31;;;34.05;29.93
55066;BME280;40964;42.114;24.220;2022-08-27T09:39:41;97376.34;;;34.24;30.10
55066;BME280;40964;42.114;24.220;2022-08-27T09:42:24;97366.94;;;34.18;27.84
55066;BME280;40964;42.114;24.220;2022-08-27T09:44:52;97371.50;;;34.00;28.37
55066;BME280;40964;42.114;24.220;2022-08-27T09:47:18;97381.91;;;33.87;29.27
55066;BME280;40964;42.114;24.220;2022-08-27T09:49:44;97370.69;;;33.92;28.43
55066;BME280;40964;42.114;24.220;2022-08-27T09:52:31;97377.59;;;33.82;27.87
55066;BME280;40964;42.114;24.220;2022-08-27T09:54:57;97383.31;;;33.67;28.47
55066;BME280;40964;42.114;24.220;2022-08-27T09:57:38;97381.56;;;33.41;29.16
55066;BME280;40964;42.114;24.220;2022-08-27T10:00:14;97377.53;;;33.75;29.29
55066;BME280;40964;42.114;24.220;2022-08-27T10:02:52;97379.97;;;33.87;28.32
55066;BME280;40964;42.114;24.220;2022-08-27T10:05:26;97379.66;;;33.93;28.49
55066;BME280;40964;42.114;24.220;2022-08-27T10:07:58;97369.41;;;33.82;26.89
55066;BME280;40964;42.114;24.220;2022-08-27T10:13:20;97366.81;;;34.80;29.11
55066;BME280;40964;42.114;24.220;2022-08-27T10:18:33;97369.00;;;34.39;27.48
55066;BME280;40964;42.114;24.220;2022-08-27T10:26:45;97380.03;;;33.95;28.22
55066;BME280;40964;42.114;24.220;2022-08-27T10:29:23;97373.19;;;33.67;26.21
55066;BME280;40964;42.114;24.220;2022-08-27T10:34:55;97379.75;;;34.14;26.74
55066;BME280;40964;42.114;24.220;2022-08-27T10:45:43;97363.75;;;34.96;25.49
55066;BME280;40964;42.114;24.220;2022-08-27T10:48:44;97360.69;;;35.40;27.03
55066;BME280;40964;42.114;24.220;2022-08-27T10:51:24;97366.56;;;35.57;27.29
55066;BME280;40964;42.114;24.220;2022-08-27T10:54:15;97366.91;;;35.76;25.74
55066;BME280;40964;42.114;24.220;2022-08-27T10:56:54;97360.28;;;35.49;25.32
55066;BME280;40964;42.114;24.220;2022-08-27T11:04:55;97365.75;;;35.92;25.53
55066;BME280;40964;42.114;24.220;2022-08-27T11:07:29;97356.34;;;36.00;25.48
55066;BME280;40964;42.114;24.220;2022-08-27T11:10:33;97355.59;;;35.78;23.76
55066;BME280;40964;42.114;24.220;2022-08-27T11:13:09;97363.41;;;35.79;25.54
55066;BME280;40964;42.114;24.220;2022-08-27T11:15:38;97361.50;;;35.51;26.04
55066;BME280;40964;42.114;24.220;2022-08-27T11:18:26;97361.41;;;34.91;25.70
55066;BME280;40964;42.114;24.220;2022-08-27T11:21:01;97363.19;;;34.48;25.70
55066;BME280;40964;42.114;24.220;2022-08-27T11:23:38;97363.78;;;34.12;25.60
55066;BME280;40964;42.114;24.220;2022-08-27T11:26:06;97345.81;;;34.08;25.09
55066;BME280;40964;42.114;24.220;2022-08-27T11:28:44;97355.56;;;34.09;27.74
55066;BME280;40964;42.114;24.220;2022-08-27T11:31:31;97351.09;;;34.49;26.74
55066;BME280;40964;42.114;24.220;2022-08-27T11:34:16;97341.88;;;34.89;25.78
55066;BME280;40964;42.114;24.220;2022-08-27T11:37:16;97341.16;;;35.24;24.36
55066;BME280;40964;42.114;24.220;2022-08-27T11:42:50;97333.34;;;35.69;23.88
55066;BME280;40964;42.114;24.220;2022-08-27T11:47:53;97332.16;;;35.66;24.08
55066;BME280;40964;42.114;24.220;2022-08-27T11:50:21;97331.38;;;35.37;24.06
55066;BME280;40964;42.114;24.220;2022-08-27T11:52:57;97336.84;;;35.19;24.88
55066;BME280;40964;42.114;24.220;2022-08-27T11:55:28;97332.53;;;35.36;26.19
55066;BME280;40964;42.114;24.220;2022-08-27T11:58:30;97340.34;;;35.06;23.39
55066;BME280;40964;42.114;24.220;2022-08-27T12:00:58;97337.59;;;34.91;24.37
55066;BME280;40964;42.114;24.220;2022-08-27T12:03:32;97329.03;;;35.18;25.92
55066;BME280;40964;42.114;24.220;2022-08-27T12:08:26;97320.84;;;35.14;25.03
55066;BME280;40964;42.114;24.220;2022-08-27T12:13:31;97317.31;;;35.24;25.06
55066;BME280;40964;42.114;24.220;2022-08-27T12:18:56;97314.97;;;35.34;24.18
55066;BME280;40964;42.114;24.220;2022-08-27T12:26:59;97307.94;;;35.40;24.49
55066;BME280;40964;42.114;24.220;2022-08-27T12:29:40;97313.41;;;35.54;26.46
55066;BME280;40964;42.114;24.220;2022-08-27T12:37:33;97309.84;;;35.78;24.67
55066;BME280;40964;42.114;24.220;2022-08-27T12:40:02;97311.44;;;35.69;22.61
55066;BME280;40964;42.114;24.220;2022-08-27T12:42:31;97314.56;;;35.67;23.25
55066;BME280;40964;42.114;24.220;2022-08-27T12:44:57;97311.03;;;35.67;23.56
55066;BME280;40964;42.114;24.220;2022-08-27T12:47:24;97308.72;;;35.08;23.94
55066;BME280;40964;42.114;24.220;2022-08-27T12:49:55;97298.97;;;35.39;25.17
55066;BME280;40964;42.114;24.220;2022-08-27T12:52:43;97300.09;;;35.67;25.57
55066;BME280;40964;42.114;24.220;2022-08-27T12:55:38;97293.09;;;35.41;24.09
55066;BME280;40964;42.114;24.220;2022-08-27T12:58:11;97298.16;;;35.17;24.80
55066;BME280;40964;42.114;24.220;2022-08-27T13:03:42;97293.47;;;35.18;25.00
55066;BME280;40964;42.114;24.220;2022-08-27T13:06:42;97289.19;;;35.35;27.28
55066;BME280;40964;42.114;24.220;2022-08-27T13:09:09;97284.47;;;35.64;25.02
55066;BME280;40964;42.114;24.220;2022-08-27T13:11:49;97284.44;;;35.81;25.86
55066;BME280;40964;42.114;24.220;2022-08-27T13:14:23;97284.38;;;36.06;25.41
55066;BME280;40964;42.114;24.220;2022-08-27T13:19:26;97282.31;;;36.35;25.50
55066;BME280;40964;42.114;24.220;2022-08-27T13:21:53;97287.03;;;36.31;25.37
55066;BME280;40964;42.114;24.220;2022-08-27T13:24:26;97280.34;;;36.43;24.02
55066;BME280;40964;42.114;24.220;2022-08-27T13:26:52;97277.91;;;36.56;24.61
55066;BME280;40964;42.114;24.220;2022-08-27T13:29:18;97282.59;;;36.55;23.64
55066;BME280;40964;42.114;24.220;2022-08-27T13:31:44;97277.13;;;36.59;22.51
55066;BME280;40964;42.114;24.220;2022-08-27T13:34:17;97280.38;;;36.29;25.70
55066;BME280;40964;42.114;24.220;2022-08-27T13:37:02;97278.84;;;36.21;24.18
55066;BME280;40964;42.114;24.220;2022-08-27T13:39:32;97277.78;;;35.93;24.15
55066;BME280;40964;42.114;24.220;2022-08-27T13:41:59;97275.84;;;35.76;23.96
55066;BME280;40964;42.114;24.220;2022-08-27T13:44:31;97273.53;;;35.14;24.35
55066;BME280;40964;42.114;24.220;2022-08-27T13:47:08;97276.69;;;35.02;25.77
55066;BME280;40964;42.114;24.220;2022-08-27T13:49:39;97280.53;;;34.83;25.47
55066;BME280;40964;42.114;24.220;2022-08-27T13:52:28;97278.94;;;34.57;26.08
55066;BME280;40964;42.114;24.220;2022-08-27T13:55:07;97274.28;;;34.75;25.52
55066;BME280;40964;42.114;24.220;2022-08-27T13:57:46;97283.69;;;34.95;26.98
55066;BME280;40964;42.114;24.220;2022-08-27T14:00:18;97285.28;;;35.32;27.33
55066;BME280;40964;42.114;24.220;2022-08-27T14:02:45;97284.09;;;35.62;26.92
55066;BME280;40964;42.114;24.220;2022-08-27T14:07:50;97280.50;;;35.93;26.17
55066;BME280;40964;42.114;24.220;2022-08-27T14:12:44;97277.00;;;35.75;24.29
55066;BME280;40964;42.114;24.220;2022-08-27T14:15:36;97273.88;;;35.76;24.53
55066;BME280;40964;42.114;24.220;2022-08-27T14:18:05;97277.03;;;35.71;26.03
55066;BME280;40964;42.114;24.220;2022-08-27T14:20:31;97279.72;;;35.82;24.38
55066;BME280;40964;42.114;24.220;2022-08-27T14:22:57;97282.09;;;35.87;25.16